Time;durP1;ratioP1;P1;durP2;ratioP2;P2;SDS_P1;SDS_P2;PMS_P1;PMS_P2;Temp;Humidity;BMP_temperature;BMP_pressure;BME280_temperature;BME280_humidity;BME280_pressure;Samples;Min_cycle;Max_cycle;Signal;HPM_P1;HPM_P2
2021/12/17 00:00:45;;;;;;;20.67;14.70;;;3.70;99.90;;;;;;5062376;28;20457;-64
2021/12/17 00:03:19;;;;;;;20.10;15.20;;;3.70;99.90;;;;;;5073266;28;20466;-63
2021/12/17 00:06:12;;;;;;;21.40;15.90;;;3.60;99.90;;;;;;5076244;28;20458;-63
2021/12/17 00:08:41;;;;;;;18.27;13.87;;;3.60;99.90;;;;;;5080016;28;20521;-64
2021/12/17 00:11:08;;;;;;;22.37;15.73;;;3.70;99.90;;;;;;5071894;28;20844;-65
2021/12/17 00:13:37;;;;;;;21.40;15.77;;;3.70;99.90;;;;;;5071772;28;20461;-64
2021/12/17 00:16:13;;;;;;;19.97;15.60;;;3.80;99.90;;;;;;5074364;28;20873;-65
2021/12/17 00:18:52;;;;;;;20.37;16.67;;;3.90;99.90;;;;;;5063272;28;20474;-64
2021/12/17 00:48:51;;;;;;;21.20;15.47;;;4.20;99.90;;;;;;5064146;28;20478;-63
2021/12/17 00:51:53;;;;;;;19.70;15.00;;;4.20;99.90;;;;;;5064012;28;20834;-64
2021/12/17 00:54:30;;;;;;;18.80;14.70;;;4.20;99.90;;;;;;5063911;28;20440;-63
2021/12/17 00:56:59;;;;;;;20.07;14.83;;;4.20;99.90;;;;;;5064189;28;20444;-64
2021/12/17 00:59:26;;;;;;;18.60;14.60;;;4.30;99.90;;;;;;5063500;28;20436;-64
2021/12/17 01:01:56;;;;;;;21.47;15.80;;;4.30;99.90;;;;;;5050889;28;20483;-63
2021/12/17 01:04:23;;;;;;;19.43;14.10;;;4.30;99.90;;;;;;5051172;28;20445;-64
2021/12/17 01:06:50;;;;;;;19.60;14.80;;;4.30;99.90;;;;;;5050472;28;20444;-63
2021/12/17 01:09:21;;;;;;;18.83;13.43;;;4.40;99.90;;;;;;5050716;28;20482;-63
2021/12/17 01:11:49;;;;;;;22.77;15.87;;;4.40;99.90;;;;;;5050925;28;21002;-63
2021/12/17 01:14:16;;;;;;;21.40;15.27;;;4.50;99.90;;;;;;5050624;28;20444;-63
2021/12/17 01:16:43;;;;;;;17.33;13.30;;;4.50;99.90;;;;;;5050244;28;20479;-63
2021/12/17 01:19:18;;;;;;;20.70;13.37;;;4.50;99.90;;;;;;5050497;28;20441;-64
2021/12/17 01:21:58;;;;;;;28.87;15.53;;;4.50;99.90;;;;;;5050545;28;20460;-64
2021/12/17 01:24:38;;;;;;;23.07;14.30;;;4.50;99.90;;;;;;5050256;28;20436;-64
2021/12/17 01:35:22;;;;;;;19.53;15.33;;;4.20;99.90;;;;;;5050183;28;20464;-64
2021/12/17 01:43:42;;;;;;;18.93;14.37;;;4.30;99.90;;;;;;5146824;27;20501;-64
2021/12/17 01:46:12;;;;;;;18.70;15.83;;;4.40;99.90;;;;;;5146785;27;20437;-65
2021/12/17 01:48:56;;;;;;;22.57;16.87;;;4.40;99.90;;;;;;5147101;27;20796;-65
2021/12/17 01:56:58;;;;;;;20.97;15.90;;;4.50;99.90;;;;;;5146371;27;20423;-64
2021/12/17 01:59:33;;;;;;;20.73;15.57;;;4.50;99.90;;;;;;5147022;27;20486;-64
2021/12/17 02:02:04;;;;;;;20.53;16.30;;;4.40;99.90;;;;;;5146646;27;20554;-63
2021/12/17 02:04:33;;;;;;;20.70;15.63;;;4.40;99.90;;;;;;5146633;27;20494;-64
2021/12/17 02:07:00;;;;;;;21.70;15.40;;;4.40;99.90;;;;;;5146310;27;20438;-64
2021/12/17 02:12:30;;;;;;;22.27;16.00;;;4.50;99.90;;;;;;5146013;27;20938;-63
2021/12/17 02:29:40;;;;;;;19.97;14.20;;;4.60;99.90;;;;;;5120666;27;20856;-63
2021/12/17 02:32:08;;;;;;;21.70;15.33;;;4.70;99.90;;;;;;5146362;27;20531;-63
2021/12/17 02:34:57;;;;;;;22.33;15.67;;;4.70;99.90;;;;;;5146321;27;20536;-65
2021/12/17 02:37:28;;;;;;;22.33;15.10;;;4.70;99.90;;;;;;5145966;27;20442;-65
2021/12/17 02:40:08;;;;;;;18.90;15.10;;;4.70;99.90;;;;;;5146314;27;20447;-63
2021/12/17 02:45:32;;;;;;;20.17;15.13;;;4.70;99.90;;;;;;5144139;27;20420;-64
2021/12/17 02:48:02;;;;;;;23.47;15.30;;;4.70;99.90;;;;;;5145693;27;20439;-63
2021/12/17 02:50:29;;;;;;;22.10;16.30;;;4.70;99.90;;;;;;5145704;27;20440;-63
2021/12/17 02:53:01;;;;;;;19.73;15.43;;;4.70;99.90;;;;;;5143838;27;20452;-65
2021/12/17 02:55:30;;;;;;;18.80;15.87;;;4.70;99.90;;;;;;5132015;27;20441;-63
2021/12/17 02:57:59;;;;;;;20.87;16.13;;;4.70;99.90;;;;;;5132141;27;20558;-65
2021/12/17 03:00:26;;;;;;;20.40;16.57;;;4.70;99.90;;;;;;5132140;27;20432;-64
2021/12/17 03:02:56;;;;;;;22.20;17.57;;;4.60;99.90;;;;;;5132286;27;20486;-64
2021/12/17 03:05:24;;;;;;;20.53;16.23;;;4.60;99.90;;;;;;5132127;27;20969;-64
2021/12/17 03:07:51;;;;;;;20.40;15.90;;;4.70;99.90;;;;;;5131875;27;20818;-65
2021/12/17 03:10:19;;;;;;;20.90;16.47;;;4.80;99.90;;;;;;5132043;27;20532;-65
2021/12/17 03:12:49;;;;;;;24.60;18.23;;;4.80;99.90;;;;;;5132032;27;20813;-64
2021/12/17 03:15:22;;;;;;;20.33;16.67;;;4.80;99.90;;;;;;5131908;27;20437;-64
2021/12/17 03:18:42;;;;;;;22.20;17.00;;;4.80;99.90;;;;;;5131498;27;20486;-65
2021/12/17 03:23:50;;;;;;;21.73;16.50;;;4.70;99.90;;;;;;5131532;27;20503;-63
2021/12/17 03:26:20;;;;;;;20.40;15.17;;;4.80;99.90;;;;;;5131284;27;20798;-63
2021/12/17 03:28:49;;;;;;;19.40;15.97;;;4.70;99.90;;;;;;5132015;27;20432;-64
2021/12/17 03:31:18;;;;;;;18.90;15.23;;;4.60;99.90;;;;;;5131794;27;20840;-63
2021/12/17 03:33:48;;;;;;;21.37;18.03;;;4.60;99.90;;;;;;5132529;27;20425;-63
2021/12/17 03:36:18;;;;;;;21.63;16.80;;;4.60;99.90;;;;;;5131609;27;20460;-62
2021/12/17 03:38:46;;;;;;;19.97;15.33;;;4.70;99.90;;;;;;5131179;27;20459;-63
2021/12/17 03:41:19;;;;;;;21.07;16.10;;;4.70;99.90;;;;;;5130661;27;20446;-64
2021/12/17 03:43:48;;;;;;;18.57;15.03;;;4.70;99.90;;;;;;5131159;27;20481;-65
2021/12/17 03:46:16;;;;;;;21.00;16.30;;;4.70;99.90;;;;;;5130660;27;20433;-62
2021/12/17 03:48:43;;;;;;;19.53;15.63;;;4.60;99.90;;;;;;5130858;27;20441;-65
2021/12/17 03:51:14;;;;;;;20.70;14.40;;;4.70;99.90;;;;;;5130688;27;20433;-63
2021/12/17 03:53:42;;;;;;;17.83;16.00;;;4.80;99.90;;;;;;5130730;27;20458;-63
2021/12/17 03:56:09;;;;;;;19.63;14.87;;;4.80;99.90;;;;;;5130661;27;20445;-64
2021/12/17 03:58:36;;;;;;;19.77;14.90;;;4.90;99.90;;;;;;5130336;27;20445;-64
2021/12/17 04:01:05;;;;;;;19.23;13.90;;;4.90;99.90;;;;;;5130591;27;20437;-64
2021/12/17 04:03:32;;;;;;;20.73;15.77;;;4.90;99.90;;;;;;5130483;27;20479;-64
2021/12/17 04:05:59;;;;;;;20.13;14.80;;;4.90;99.90;;;;;;5129294;27;20432;-64
2021/12/17 04:08:26;;;;;;;19.50;15.20;;;4.80;99.90;;;;;;5130147;27;20437;-63
2021/12/17 04:11:02;;;;;;;17.90;16.00;;;4.80;99.90;;;;;;5130597;27;20480;-64
2021/12/17 04:13:32;;;;;;;19.80;15.13;;;4.90;99.90;;;;;;5130430;27;20433;-64
2021/12/17 04:16:01;;;;;;;16.30;13.77;;;4.90;99.90;;;;;;5130451;27;20444;-64
2021/12/17 04:18:31;;;;;;;18.70;15.63;;;4.90;99.90;;;;;;5129914;27;20449;-64
2021/12/17 04:21:01;;;;;;;18.83;14.77;;;5.00;99.90;;;;;;5130168;27;21293;-63
2021/12/17 04:23:28;;;;;;;17.93;15.07;;;5.00;99.90;;;;;;5130219;27;20481;-65
2021/12/17 04:25:55;;;;;;;17.20;14.70;;;5.00;99.90;;;;;;5130118;27;20447;-64
2021/12/17 04:28:22;;;;;;;18.83;15.60;;;5.00;99.90;;;;;;5129643;27;20433;-65
2021/12/17 04:30:50;;;;;;;18.10;13.80;;;5.00;99.90;;;;;;5129900;27;20441;-64
2021/12/17 04:33:17;;;;;;;16.80;13.03;;;4.90;99.90;;;;;;5129318;27;20475;-64
2021/12/17 04:35:46;;;;;;;21.07;15.50;;;5.00;99.90;;;;;;5129968;27;20472;-65
2021/12/17 04:38:15;;;;;;;16.43;14.20;;;5.00;99.90;;;;;;5129540;27;20433;-65
2021/12/17 04:40:43;;;;;;;17.43;14.20;;;5.10;99.90;;;;;;5129684;27;20433;-64
2021/12/17 04:43:33;;;;;;;19.43;15.10;;;5.10;99.90;;;;;;5129488;27;20481;-64
2021/12/17 04:46:13;;;;;;;18.87;14.40;;;5.10;99.90;;;;;;5129879;27;20428;-64
2021/12/17 04:57:21;;;;;;;17.33;14.67;;;5.10;99.90;;;;;;5103990;27;21151;-64
2021/12/17 04:59:47;;;;;;;18.10;15.37;;;5.10;99.90;;;;;;5129568;27;20441;-65
2021/12/17 05:02:15;;;;;;;18.10;13.80;;;5.10;99.90;;;;;;5129322;27;20539;-63
2021/12/17 05:04:43;;;;;;;19.20;14.33;;;5.10;99.90;;;;;;5129594;27;20527;-63
2021/12/17 05:07:13;;;;;;;18.97;14.50;;;5.10;99.90;;;;;;5129255;27;20437;-64
2021/12/17 05:09:47;;;;;;;19.07;14.00;;;5.10;99.90;;;;;;5129464;27;20437;-65
2021/12/17 05:20:33;;;;;;;20.03;14.77;;;5.20;99.90;;;;;;5129090;27;21099;-64
2021/12/17 05:23:02;;;;;;;18.53;14.30;;;5.10;99.90;;;;;;5129089;27;21051;-64
2021/12/17 05:25:29;;;;;;;18.20;15.20;;;5.10;99.90;;;;;;5129111;27;20451;-64
2021/12/17 05:28:00;;;;;;;18.93;14.27;;;5.00;99.90;;;;;;5128575;27;21148;-63
2021/12/17 05:30:28;;;;;;;19.23;14.73;;;5.10;99.90;;;;;;5129194;27;20992;-63
2021/12/17 05:32:55;;;;;;;17.50;14.80;;;5.00;99.90;;;;;;5129075;27;20492;-64
2021/12/17 05:35:22;;;;;;;21.40;16.10;;;5.00;99.90;;;;;;5129168;27;20437;-63
2021/12/17 05:37:49;;;;;;;19.67;15.13;;;5.10;99.90;;;;;;5128575;27;20437;-63
2021/12/17 05:40:18;;;;;;;18.60;15.20;;;5.10;99.90;;;;;;5129482;27;20444;-63
2021/12/17 05:42:55;;;;;;;16.57;14.37;;;5.00;99.90;;;;;;5129199;27;20480;-64
2021/12/17 05:45:33;;;;;;;18.60;14.77;;;5.00;99.90;;;;;;5129328;27;20487;-64
2021/12/17 05:48:01;;;;;;;20.80;16.50;;;5.00;99.90;;;;;;5128737;27;20433;-63
2021/12/17 05:50:28;;;;;;;16.67;13.83;;;5.00;99.90;;;;;;5128912;27;20437;-64
2021/12/17 05:52:55;;;;;;;19.43;15.40;;;5.00;99.90;;;;;;5129071;27;20456;-64
2021/12/17 05:55:23;;;;;;;19.03;15.07;;;5.10;99.90;;;;;;5129354;27;20442;-65
2021/12/17 05:57:52;;;;;;;17.67;13.33;;;5.00;99.90;;;;;;5128598;27;20800;-62
2021/12/17 06:00:19;;;;;;;22.17;15.63;;;5.00;99.90;;;;;;5128924;27;20436;-63
2021/12/17 06:02:46;;;;;;;16.90;13.47;;;5.00;99.90;;;;;;5128273;27;20484;-62
2021/12/17 06:05:13;;;;;;;19.00;15.27;;;5.00;99.90;;;;;;5123813;27;20479;-64
2021/12/17 06:07:40;;;;;;;19.53;15.10;;;5.00;99.90;;;;;;5122578;27;20450;-64
2021/12/17 06:10:09;;;;;;;25.40;16.47;;;5.00;99.90;;;;;;5125968;27;20453;-64
2021/12/17 06:12:38;;;;;;;19.60;16.50;;;5.00;99.90;;;;;;5117682;27;20529;-65
2021/12/17 06:15:07;;;;;;;17.17;13.73;;;4.90;99.90;;;;;;5123184;28;20437;-64
2021/12/17 06:17:34;;;;;;;19.50;15.63;;;4.90;99.90;;;;;;5126208;27;20445;-65
2021/12/17 06:20:01;;;;;;;19.80;15.00;;;4.80;99.90;;;;;;5127883;27;20432;-64
2021/12/17 06:22:28;;;;;;;23.50;16.37;;;4.80;99.90;;;;;;5128882;27;20468;-65
2021/12/17 06:24:55;;;;;;;18.67;15.20;;;4.90;99.90;;;;;;5126077;27;20552;-65
2021/12/17 06:27:23;;;;;;;19.60;15.30;;;4.90;99.90;;;;;;5128193;27;20452;-65
2021/12/17 06:29:52;;;;;;;17.23;14.43;;;4.90;99.90;;;;;;5130422;27;20765;-65
2021/12/17 06:32:20;;;;;;;18.80;15.23;;;4.90;99.90;;;;;;5131755;27;20535;-64
2021/12/17 06:34:48;;;;;;;22.90;16.47;;;4.90;99.90;;;;;;5132063;27;20539;-64
2021/12/17 06:37:16;;;;;;;17.87;14.87;;;4.90;99.90;;;;;;5131849;27;20475;-65
2021/12/17 06:39:43;;;;;;;22.17;15.67;;;4.90;99.90;;;;;;5132205;27;20449;-66
2021/12/17 06:42:11;;;;;;;21.10;17.17;;;5.00;99.90;;;;;;5131479;27;20477;-66
2021/12/17 06:44:38;;;;;;;19.10;15.93;;;4.90;99.90;;;;;;5131604;27;20483;-66
2021/12/17 06:47:13;;;;;;;25.00;17.17;;;4.90;99.90;;;;;;5131385;27;20961;-65
2021/12/17 06:49:53;;;;;;;19.80;16.13;;;4.90;99.90;;;;;;5132128;27;20519;-64
2021/12/17 06:55:19;;;;;;;22.20;16.40;;;5.00;99.90;;;;;;5132552;27;20427;-65
2021/12/17 07:01:00;;;;;;;23.77;17.77;;;5.00;99.90;;;;;;5132392;27;20439;-65
2021/12/17 07:06:22;;;;;;;23.50;18.63;;;5.00;99.90;;;;;;5131763;27;20428;-65
2021/12/17 07:17:15;;;;;;;20.70;16.67;;;5.20;99.90;;;;;;5130869;27;20417;-64
2021/12/17 07:22:44;;;;;;;18.73;16.40;;;5.20;99.90;;;;;;5112234;27;20569;-62
2021/12/17 07:28:15;;;;;;;19.40;16.33;;;5.30;99.90;;;;;;5112054;27;20444;-65
2021/12/17 07:33:35;;;;;;;17.90;13.07;;;5.30;99.90;;;;;;5130764;27;20462;-63
2021/12/17 07:36:10;;;;;;;17.60;13.10;;;5.30;99.90;;;;;;5131264;27;20437;-62
2021/12/17 07:38:39;;;;;;;16.43;12.90;;;5.30;99.90;;;;;;5130391;27;20436;-62
2021/12/17 07:41:07;;;;;;;16.70;14.60;;;5.20;99.90;;;;;;5130344;27;20445;-63
2021/12/17 07:43:38;;;;;;;16.57;12.90;;;5.10;99.90;;;;;;5129953;27;20576;-62
2021/12/17 07:46:07;;;;;;;14.23;11.77;;;5.00;99.90;;;;;;5130365;27;20806;-63
2021/12/17 07:48:35;;;;;;;15.80;12.93;;;4.90;99.90;;;;;;5130322;27;20610;-62
2021/12/17 07:51:06;;;;;;;20.87;15.67;;;4.70;99.90;;;;;;5130699;27;20501;-63
2021/12/17 07:53:34;;;;;;;18.83;13.13;;;4.60;99.90;;;;;;5130700;27;20475;-64
2021/12/17 07:56:03;;;;;;;17.23;13.03;;;4.60;99.90;;;;;;5130346;27;20471;-63
2021/12/17 07:58:30;;;;;;;15.20;12.63;;;4.50;99.90;;;;;;5123595;27;20664;-62
2021/12/17 08:00:58;;;;;;;16.53;11.90;;;4.40;99.90;;;;;;5124445;27;21050;-62
2021/12/17 08:03:25;;;;;;;17.23;13.57;;;4.30;99.90;;;;;;5128658;27;20556;-64
2021/12/17 08:05:53;;;;;;;16.97;13.63;;;4.30;99.90;;;;;;5128776;27;20859;-63
2021/12/17 08:08:22;;;;;;;16.83;13.20;;;4.40;99.90;;;;;;5129404;27;20520;-63
2021/12/17 08:10:49;;;;;;;19.87;14.30;;;4.40;99.90;;;;;;5129716;27;20516;-64
2021/12/17 08:13:20;;;;;;;19.83;12.87;;;4.40;99.90;;;;;;5130112;27;20493;-63
2021/12/17 08:16:02;;;;;;;18.83;13.90;;;4.50;99.90;;;;;;5129812;27;20890;-63
2021/12/17 08:18:45;;;;;;;15.87;13.63;;;4.50;99.90;;;;;;5129354;27;21011;-64
2021/12/17 08:27:08;;;;;;;19.90;14.50;;;4.60;99.90;;;;;;5129419;27;20421;-64
2021/12/17 08:29:53;;;;;;;18.07;13.50;;;4.80;99.90;;;;;;5129858;27;20488;-65
2021/12/17 08:32:20;;;;;;;15.97;14.20;;;4.80;99.90;;;;;;5129835;27;20488;-65
2021/12/17 08:34:47;;;;;;;14.87;12.57;;;4.90;99.90;;;;;;5129908;27;21063;-64
2021/12/17 08:37:14;;;;;;;14.70;12.90;;;5.00;99.90;;;;;;5129793;27;20449;-65
2021/12/17 08:39:43;;;;;;;18.60;14.27;;;5.00;99.90;;;;;;5129973;27;20447;-63
2021/12/17 08:42:10;;;;;;;15.50;12.20;;;5.10;99.90;;;;;;5129696;27;20472;-66
2021/12/17 08:44:36;;;;;;;16.50;13.07;;;5.20;99.90;;;;;;5129624;27;20473;-64
2021/12/17 08:47:05;;;;;;;15.60;13.20;;;5.30;99.90;;;;;;5129625;27;21162;-64
2021/12/17 08:49:32;;;;;;;16.07;13.17;;;5.40;99.90;;;;;;5129692;27;20824;-65
2021/12/17 08:51:59;;;;;;;14.20;11.90;;;5.50;99.90;;;;;;5129283;27;20460;-64
2021/12/17 08:54:26;;;;;;;17.63;12.83;;;5.60;99.90;;;;;;5129456;27;20455;-66
2021/12/17 08:56:54;;;;;;;15.70;12.80;;;5.60;99.90;;;;;;5129178;27;20545;-66
2021/12/17 08:59:21;;;;;;;15.37;12.30;;;5.70;99.90;;;;;;5129284;27;20441;-65
2021/12/17 09:01:48;;;;;;;13.70;11.97;;;5.70;99.90;;;;;;5128320;27;20471;-65
2021/12/17 09:04:16;;;;;;;12.47;10.63;;;5.80;99.90;;;;;;5129028;27;20468;-65
2021/12/17 09:06:43;;;;;;;13.17;10.73;;;5.80;99.90;;;;;;5128246;27;20437;-65
2021/12/17 09:09:10;;;;;;;14.57;12.03;;;5.90;99.90;;;;;;5128452;27;20961;-63
2021/12/17 09:11:37;;;;;;;15.87;10.23;;;6.00;99.90;;;;;;5128828;27;20970;-65
2021/12/17 09:14:07;;;;;;;14.13;11.57;;;5.90;99.90;;;;;;5129037;27;20441;-64
2021/12/17 09:16:35;;;;;;;13.20;10.83;;;6.00;99.90;;;;;;5128883;27;20445;-65
2021/12/17 09:19:04;;;;;;;12.87;11.10;;;6.00;99.90;;;;;;5128852;27;20973;-64
2021/12/17 09:21:31;;;;;;;12.13;10.70;;;6.00;99.90;;;;;;5128968;27;20479;-65
2021/12/17 09:23:58;;;;;;;14.10;11.20;;;6.00;99.90;;;;;;5128632;27;20479;-65
2021/12/17 09:26:25;;;;;;;14.40;10.70;;;6.00;99.90;;;;;;5128297;27;20452;-66
2021/12/17 09:28:52;;;;;;;10.87;9.57;;;6.10;99.90;;;;;;5128490;27;20440;-64
2021/12/17 09:31:20;;;;;;;12.70;9.40;;;6.10;99.90;;;;;;5128866;27;20465;-64
2021/12/17 09:33:49;;;;;;;14.07;11.10;;;6.10;99.90;;;;;;5128613;27;20528;-64
2021/12/17 09:36:16;;;;;;;12.37;10.60;;;6.20;99.90;;;;;;5128607;27;20446;-66
2021/12/17 09:38:46;;;;;;;11.30;9.30;;;6.20;99.90;;;;;;5128666;27;20543;-64
2021/12/17 09:41:13;;;;;;;11.70;10.03;;;6.20;99.90;;;;;;5128493;27;20445;-65
2021/12/17 09:43:40;;;;;;;11.60;9.00;;;6.30;99.90;;;;;;5128499;27;20439;-64
2021/12/17 09:46:07;;;;;;;10.77;9.67;;;6.30;99.90;;;;;;5128396;27;20436;-66
2021/12/17 09:48:37;;;;;;;10.90;9.50;;;6.30;99.90;;;;;;5128573;27;20429;-67
2021/12/17 09:51:06;;;;;;;13.40;11.10;;;6.30;99.90;;;;;;5128430;27;20911;-65
2021/12/17 09:53:33;;;;;;;14.33;11.67;;;6.40;99.90;;;;;;5128516;27;20441;-65
2021/12/17 09:56:01;;;;;;;12.13;10.87;;;6.50;99.90;;;;;;5128490;27;20444;-65
2021/12/17 09:58:29;;;;;;;11.97;9.40;;;6.60;99.90;;;;;;5128089;27;20946;-66
2021/12/17 10:00:56;;;;;;;11.13;9.13;;;6.70;99.90;;;;;;5128664;27;20551;-65
2021/12/17 10:03:23;;;;;;;10.97;9.47;;;6.80;99.90;;;;;;5128954;27;20447;-64
2021/12/17 10:05:51;;;;;;;10.60;9.43;;;7.00;99.90;;;;;;5132722;27;20486;-65
2021/12/17 10:08:20;;;;;;;9.53;8.37;;;7.20;99.90;;;;;;5132069;27;20459;-66
2021/12/17 10:10:49;;;;;;;11.10;8.80;;;7.50;99.90;;;;;;5132384;27;20436;-66
2021/12/17 10:13:20;;;;;;;12.23;8.80;;;7.60;99.90;;;;;;5131939;27;20552;-65
2021/12/17 10:15:50;;;;;;;12.20;9.07;;;7.80;99.90;;;;;;5132074;27;20432;-65
2021/12/17 10:18:17;;;;;;;9.67;8.03;;;8.10;99.90;;;;;;5131908;27;20821;-65
2021/12/17 10:20:59;;;;;;;8.73;7.83;;;8.60;99.90;;;;;;5132192;27;20551;-66
2021/12/17 10:23:28;;;;;;;10.20;8.07;;;9.50;99.90;;;;;;5131897;27;21074;-64
2021/12/17 10:25:55;;;;;;;8.30;7.40;;;10.60;99.90;;;;;;5132105;27;20474;-66
2021/12/17 10:28:22;;;;;;;8.13;6.40;;;11.40;99.90;;;;;;5132045;27;20468;-65
2021/12/17 10:30:51;;;;;;;7.50;6.33;;;11.30;99.90;;;;;;5132200;27;20448;-65
2021/12/17 10:33:23;;;;;;;8.60;7.47;;;11.50;99.90;;;;;;5132069;27;20551;-66
2021/12/17 10:35:51;;;;;;;9.33;7.47;;;11.10;99.90;;;;;;5131995;27;20443;-63
2021/12/17 10:38:23;;;;;;;9.63;7.43;;;11.20;99.90;;;;;;5131363;27;21145;-64
2021/12/17 10:40:56;;;;;;;8.23;7.30;;;10.80;99.90;;;;;;5131774;27;20509;-65
2021/12/17 10:43:28;;;;;;;11.07;7.67;;;9.80;99.90;;;;;;5131606;27;20453;-65
2021/12/17 10:46:03;;;;;;;10.03;8.77;;;8.90;99.90;;;;;;5131511;27;20480;-66
2021/12/17 10:48:35;;;;;;;9.97;8.30;;;8.20;99.90;;;;;;5131302;27;20480;-64
2021/12/17 10:51:16;;;;;;;12.00;9.00;;;7.80;99.90;;;;;;5131638;27;20472;-64
2021/12/17 10:53:53;;;;;;;12.67;9.87;;;7.70;99.90;;;;;;5131496;27;20461;-65
2021/12/17 10:56:21;;;;;;;10.57;8.57;;;7.70;99.90;;;;;;5131151;27;20486;-64
2021/12/17 10:59:02;;;;;;;10.60;8.30;;;7.80;99.90;;;;;;5131515;27;20451;-64
2021/12/17 11:01:32;;;;;;;13.73;9.20;;;7.70;99.90;;;;;;5131250;27;20476;-64
2021/12/17 11:04:15;;;;;;;12.77;8.83;;;7.60;99.90;;;;;;5131053;27;20476;-65
2021/12/17 11:06:44;;;;;;;12.20;9.27;;;7.40;99.90;;;;;;5130951;27;20953;-64
2021/12/17 11:09:12;;;;;;;12.50;9.63;;;7.40;99.90;;;;;;5131271;27;20449;-65
2021/12/17 11:11:42;;;;;;;10.67;8.83;;;7.30;99.90;;;;;;5131185;27;20460;-65
2021/12/17 11:14:09;;;;;;;12.57;8.67;;;7.30;99.90;;;;;;5130707;27;20457;-65
2021/12/17 11:16:38;;;;;;;10.30;7.60;;;7.40;99.90;;;;;;5130975;27;20467;-66
2021/12/17 11:19:06;;;;;;;11.87;8.57;;;7.40;99.90;;;;;;5131292;27;20445;-64
2021/12/17 11:21:33;;;;;;;10.20;7.67;;;7.40;99.90;;;;;;5131118;27;20836;-64
2021/12/17 11:24:01;;;;;;;9.80;7.80;;;7.40;99.90;;;;;;5130763;27;20447;-65
2021/12/17 11:26:29;;;;;;;14.07;7.50;;;7.40;99.90;;;;;;5130776;27;20571;-65
2021/12/17 11:29:02;;;;;;;10.73;7.93;;;7.50;99.90;;;;;;5130925;27;20453;-64
2021/12/17 11:31:31;;;;;;;9.00;7.53;;;7.50;99.90;;;;;;5130809;27;20522;-64
2021/12/17 11:34:00;;;;;;;10.23;7.30;;;7.60;99.90;;;;;;5130949;27;20437;-63
2021/12/17 11:36:28;;;;;;;9.10;7.23;;;7.60;99.90;;;;;;5130585;27;20445;-64
2021/12/17 11:39:03;;;;;;;10.60;8.60;;;7.70;99.90;;;;;;5130606;27;20441;-64
2021/12/17 11:41:41;;;;;;;9.90;8.30;;;7.70;99.90;;;;;;5130257;27;20468;-64
2021/12/17 11:44:12;;;;;;;11.80;8.07;;;7.70;99.90;;;;;;5130425;27;20447;-64
2021/12/17 11:46:39;;;;;;;9.70;7.87;;;7.70;99.90;;;;;;5130197;27;20456;-66
2021/12/17 11:49:12;;;;;;;10.57;8.40;;;7.80;99.90;;;;;;5130215;27;21017;-63
2021/12/17 11:51:39;;;;;;;9.90;7.50;;;7.80;99.90;;;;;;5130301;27;20475;-65
2021/12/17 11:54:10;;;;;;;9.77;7.97;;;7.80;99.90;;;;;;5130476;27;20445;-65
2021/12/17 11:56:45;;;;;;;8.73;7.70;;;7.80;99.90;;;;;;5130106;27;20441;-65
2021/12/17 11:59:37;;;;;;;9.20;7.10;;;7.80;99.90;;;;;;5130166;27;20541;-65
2021/12/17 12:02:11;;;;;;;8.20;7.37;;;7.80;99.90;;;;;;5130085;27;20858;-65
2021/12/17 12:04:59;;;;;;;12.10;7.50;;;7.80;99.90;;;;;;5130256;27;20467;-64
2021/12/17 12:07:36;;;;;;;8.03;6.83;;;7.90;99.90;;;;;;5129601;27;20441;-64
2021/12/17 12:10:21;;;;;;;8.00;7.17;;;7.90;99.90;;;;;;5130318;27;20924;-65
2021/12/17 12:12:57;;;;;;;8.80;7.47;;;8.00;99.90;;;;;;5129871;27;20543;-65
2021/12/17 12:15:32;;;;;;;9.37;7.37;;;8.00;99.90;;;;;;5130055;27;20440;-65
2021/12/17 12:18:08;;;;;;;9.07;8.00;;;8.00;99.90;;;;;;5130069;27;20464;-64
2021/12/17 12:20:51;;;;;;;8.77;7.10;;;8.10;99.90;;;;;;5130015;27;20452;-65
2021/12/17 12:23:20;;;;;;;8.63;7.10;;;8.10;99.90;;;;;;5129683;27;20569;-64
2021/12/17 12:26:08;;;;;;;8.13;6.90;;;8.10;99.90;;;;;;5129138;27;20507;-64
2021/12/17 12:28:58;;;;;;;8.30;6.97;;;8.20;99.90;;;;;;5129192;27;20456;-64
2021/12/17 12:31:51;;;;;;;8.67;7.00;;;8.20;99.90;;;;;;5129729;27;20464;-64
2021/12/17 12:34:20;;;;;;;11.13;7.80;;;8.20;99.90;;;;;;5127015;27;20453;-65
2021/12/17 12:36:53;;;;;;;11.17;8.93;;;8.20;99.90;;;;;;5129240;27;20934;-64
2021/12/17 12:39:23;;;;;;;12.60;8.50;;;8.30;99.90;;;;;;5129974;27;20421;-65
2021/12/17 12:41:58;;;;;;;8.87;7.97;;;8.30;99.90;;;;;;5129697;27;20488;-65
2021/12/17 12:44:58;;;;;;;10.23;7.70;;;8.30;99.90;;;;;;5130865;27;20440;-65
2021/12/17 12:47:45;;;;;;;9.07;6.80;;;8.30;99.90;;;;;;5122794;27;20536;-66
2021/12/17 12:50:13;;;;;;;10.07;8.00;;;8.30;99.90;;;;;;5126344;27;20445;-66
2021/12/17 12:52:45;;;;;;;8.73;7.30;;;8.40;99.90;;;;;;5129680;27;20496;-66
2021/12/17 12:55:19;;;;;;;10.20;7.97;;;8.40;99.90;;;;;;5148285;27;20493;-64
2021/12/17 12:57:48;;;;;;;8.83;6.80;;;8.40;99.90;;;;;;5147709;27;20483;-65
2021/12/17 13:00:18;;;;;;;9.90;7.43;;;8.40;99.90;;;;;;5149476;27;20444;-65
2021/12/17 13:02:50;;;;;;;9.00;7.23;;;8.40;99.90;;;;;;5149716;27;20505;-65
2021/12/17 13:05:17;;;;;;;9.70;7.40;;;8.40;99.90;;;;;;5146421;27;20516;-65
2021/12/17 13:07:47;;;;;;;12.53;9.03;;;8.40;99.90;;;;;;5134319;27;20436;-66
2021/12/17 13:10:16;;;;;;;8.87;6.90;;;8.40;99.90;;;;;;5140704;27;20490;-65
2021/12/17 13:12:50;;;;;;;8.60;7.60;;;8.40;99.90;;;;;;5139199;27;20546;-65
2021/12/17 13:15:31;;;;;;;10.77;8.07;;;8.40;99.90;;;;;;5145826;27;20463;-65
2021/12/17 13:21:02;;;;;;;10.40;7.23;;;8.80;99.90;;;;;;5135356;27;20428;-64
2021/12/17 13:23:33;;;;;;;8.23;6.60;;;9.00;99.90;;;;;;5125870;27;20449;-65
2021/12/17 13:26:06;;;;;;;9.43;8.20;;;9.00;99.90;;;;;;5120768;27;20503;-65
2021/12/17 13:28:55;;;;;;;11.10;7.80;;;9.00;99.90;;;;;;5125862;27;20963;-65
2021/12/17 13:31:37;;;;;;;8.43;6.77;;;8.90;99.90;;;;;;5128440;27;21072;-63
2021/12/17 13:34:11;;;;;;;10.20;7.63;;;8.80;99.90;;;;;;5144184;27;20805;-64
2021/12/17 13:36:50;;;;;;;8.80;7.20;;;8.70;99.90;;;;;;5131268;27;20443;-64
2021/12/17 13:39:17;;;;;;;9.57;7.87;;;8.60;99.90;;;;;;5130184;27;20442;-64
2021/12/17 13:41:46;;;;;;;8.50;7.10;;;8.50;99.90;;;;;;5126342;27;20469;-65
2021/12/17 13:44:32;;;;;;;10.40;8.00;;;8.40;99.90;;;;;;5139105;27;20439;-65
2021/12/17 13:47:29;;;;;;;11.40;8.73;;;8.40;99.90;;;;;;5121159;27;20489;-65
2021/12/17 13:50:08;;;;;;;9.40;7.80;;;8.30;99.90;;;;;;5134243;27;20448;-64
2021/12/17 13:52:37;;;;;;;10.00;8.40;;;8.20;99.90;;;;;;5141355;27;20513;-64
2021/12/17 13:55:07;;;;;;;11.27;9.93;;;8.20;99.90;;;;;;5125183;27;20475;-65
2021/12/17 13:57:34;;;;;;;10.90;8.67;;;8.30;99.90;;;;;;5123598;27;21111;-65
2021/12/17 14:00:12;;;;;;;12.73;9.63;;;8.50;99.90;;;;;;5128253;27;20436;-64
2021/12/17 14:02:41;;;;;;;10.30;7.83;;;8.50;99.90;;;;;;5148636;27;20503;-64
2021/12/17 14:05:12;;;;;;;10.90;9.53;;;8.60;99.90;;;;;;5128917;27;20480;-63
2021/12/17 14:07:40;;;;;;;11.53;9.03;;;8.50;99.90;;;;;;5128427;27;20464;-64
2021/12/17 14:10:12;;;;;;;14.50;10.57;;;8.50;99.90;;;;;;5128407;27;20452;-63
2021/12/17 14:12:41;;;;;;;11.70;9.30;;;8.40;99.90;;;;;;5128465;27;20471;-64
2021/12/17 14:15:12;;;;;;;12.80;10.57;;;8.40;99.90;;;;;;5128746;27;20528;-63
2021/12/17 14:17:43;;;;;;;14.00;10.90;;;8.30;99.90;;;;;;5128491;27;20445;-64
2021/12/17 14:20:17;;;;;;;15.73;10.13;;;8.20;99.90;;;;;;5128650;27;20864;-64
2021/12/17 14:22:45;;;;;;;11.87;9.50;;;8.10;99.90;;;;;;5119036;27;20552;-65
2021/12/17 14:25:34;;;;;;;13.33;9.17;;;8.10;99.90;;;;;;5118428;27;20503;-64
2021/12/17 14:28:03;;;;;;;16.67;10.57;;;8.00;99.90;;;;;;5121162;28;20453;-66
2021/12/17 14:30:34;;;;;;;11.07;9.40;;;8.00;99.90;;;;;;5121271;27;20445;-65
2021/12/17 14:33:07;;;;;;;12.60;9.80;;;8.00;99.90;;;;;;5122284;27;20472;-65
2021/12/17 14:36:05;;;;;;;13.20;10.10;;;8.00;99.90;;;;;;5128030;27;20452;-64
2021/12/17 14:38:39;;;;;;;13.57;10.03;;;7.90;99.90;;;;;;5127294;27;20449;-64
2021/12/17 14:41:07;;;;;;;13.93;11.03;;;8.00;99.90;;;;;;5124703;27;20441;-66
2021/12/17 14:43:40;;;;;;;14.73;12.87;;;8.00;99.90;;;;;;5124333;27;20973;-65
2021/12/17 14:46:16;;;;;;;15.23;12.60;;;7.90;99.90;;;;;;5128630;27;20484;-64
2021/12/17 14:48:55;;;;;;;16.90;13.20;;;7.80;99.90;;;;;;5126030;27;20444;-64
2021/12/17 15:02:45;;;;;;;14.40;12.63;;;7.40;99.90;;;;;;5130523;27;20464;-67
2021/12/17 15:05:12;;;;;;;17.00;13.47;;;7.30;99.90;;;;;;5128799;27;20430;-66
2021/12/17 15:07:41;;;;;;;16.73;13.03;;;7.30;99.90;;;;;;5127500;27;20821;-66
2021/12/17 15:10:10;;;;;;;15.73;12.03;;;7.20;99.90;;;;;;5131217;27;20967;-66
2021/12/17 15:12:39;;;;;;;17.07;13.17;;;7.20;99.90;;;;;;5139346;27;20482;-66
2021/12/17 15:15:15;;;;;;;14.47;12.93;;;7.20;99.90;;;;;;5137230;27;20445;-65